Portada
METAR-TAF:

METAR-TAF

Aeroports :

Hanoi, Vietnam

latitud: 21-01N, longitud: 105-48E, altitud: 6 m

Observació

L'informe es va fer fa 16 minuts, a les 08:30 UTC
Vent 3 kt del Est, variant entre Nord/Nord-Est i Est/Sud-Est
Temperatura 31°C
Humitat 36%
Pressió 1016 hPa
Visibilitat 10 km o més
sense núvols per sota de 1500 mi sense presència de cumulonimbus.

METAR: VVNB 240830Z 08003KT 030V120 CAVOK 31/14 Q1016 NOSIG

Hora: 15:46 (08:46 UTC)

Pronòstic

L'informe es va fer fa 3 hores i 46 minuts, a les 05:00 UTC
Pronòstic vàlid del 24 a les 06 UTC al 25 a les 06 UTC
Vent 5 kt del Nord
Visibilitat 10 km o més
Escasses núvols a una alçada de 2500 ft
Temporalment
l' 24 a les 11 UTC al 24 a les 13 UTC
Visibilitat: 4000 m
fum

TAF: VVNB 240500Z 2406/2506 36005KT 9999 FEW025 TEMPO 2411/2413 4000 FU

Observacions i pronòstics meteorològics de més de 4000 aeroports (METAR i TAF).

Les estacions disponibles són els punts grocs i vermells al mapa.

Posi el ratolí al punt desitjat per veure el nom de l'estació.

Feu clic per veure les observacions i els pronòstics meteorològics.

Per canviar el mapa: feu clic els botons verds amb una creu de color negre per apropar; al botó verd amb un guió per allunyar la imatge; o en les fletxes verdes per a mapes adjacents.


METAR-TAF: